AEE218 LGTS-LIPH
Flight info
| Callsign | AEE218 |
|---|---|
| Flight time | 1h 45m |
| Altitude | 36000 |
| Route | EDASI UM603 PINDO DCT RODON DCT UMSON DCT ROTAR DCT AKADO Y265 INBUT DCT ALBET |
| Aircraft | A320/M-SDE3FGHIRWY/LB1 |
Departure
| Time | 2026-05-05 15:38 |
|---|---|
| Airport | Thessaloniki Macedonia International Airport (LGTS) |
Arrival
| Time | 2026-05-05 17:23 |
|---|---|
| Airport | Treviso Airport (LIPH) |
| Time | Latitude | Longitude | Altitude | Speed | Heading |
|---|---|---|---|---|---|
| 2026-05-05 15:23 | 40.52281 | 22.97624 | 28 ft | 0 kts | 45° |
| 2026-05-05 15:30 | 40.52274 | 22.97614 | 28 ft | 4 kts | 48° |
| 2026-05-05 15:30 | 40.52258 | 22.97586 | 28 ft | 4 kts | 64° |
| 2026-05-05 15:30 | 40.52252 | 22.97555 | 28 ft | 4 kts | 109° |
| 2026-05-05 15:30 | 40.52256 | 22.97543 | 28 ft | 0 kts | 135° |
| 2026-05-05 15:33 | 40.52248 | 22.97554 | 28 ft | 5 kts | 135° |
| 2026-05-05 15:34 | 40.52211 | 22.97601 | 28 ft | 11 kts | 135° |
| 2026-05-05 15:34 | 40.52143 | 22.97667 | 28 ft | 13 kts | 145° |
| 2026-05-05 15:34 | 40.52063 | 22.97762 | 29 ft | 17 kts | 136° |
| 2026-05-05 15:34 | 40.51993 | 22.97894 | 29 ft | 19 kts | 107° |
| 2026-05-05 15:35 | 40.51959 | 22.98070 | 29 ft | 21 kts | 105° |
| 2026-05-05 15:35 | 40.51922 | 22.98261 | 29 ft | 23 kts | 104° |
| 2026-05-05 15:35 | 40.51882 | 22.98469 | 29 ft | 23 kts | 104° |
| 2026-05-05 15:35 | 40.51849 | 22.98646 | 28 ft | 13 kts | 104° |
| 2026-05-05 15:36 | 40.51778 | 22.98699 | 28 ft | 14 kts | 190° |
| 2026-05-05 15:36 | 40.51693 | 22.98662 | 29 ft | 12 kts | 227° |
| 2026-05-05 15:36 | 40.51696 | 22.98588 | 28 ft | 1 kts | 286° |
| 2026-05-05 15:36 | 40.51697 | 22.98583 | 28 ft | 1 kts | 286° |
| 2026-05-05 15:37 | 40.51729 | 22.98410 | 28 ft | 52 kts | 283° |
| 2026-05-05 15:37 | 40.51861 | 22.97668 | 29 ft | 111 kts | 283° |
| 2026-05-05 15:37 | 40.52088 | 22.96476 | 31 ft | 155 kts | 283° |
| 2026-05-05 15:37 | 40.52376 | 22.95018 | 428 ft | 163 kts | 281° |
| 2026-05-05 15:38 | 40.52694 | 22.93579 | 936 ft | 169 kts | 283° |
| 2026-05-05 15:38 | 40.53024 | 22.92103 | 1560 ft | 168 kts | 283° |
| 2026-05-05 15:38 | 40.53358 | 22.90588 | 2017 ft | 181 kts | 284° |
| 2026-05-05 15:38 | 40.53722 | 22.88906 | 2279 ft | 203 kts | 284° |
| 2026-05-05 15:39 | 40.54131 | 22.87012 | 2537 ft | 228 kts | 285° |
| 2026-05-05 15:39 | 40.54577 | 22.84936 | 2936 ft | 250 kts | 285° |
| 2026-05-05 15:39 | 40.55059 | 22.82691 | 3679 ft | 258 kts | 285° |
| 2026-05-05 15:39 | 40.55334 | 22.80341 | 4518 ft | 264 kts | 268° |
| 2026-05-05 15:40 | 40.54909 | 22.77990 | 5361 ft | 269 kts | 246° |
| 2026-05-05 15:40 | 40.53788 | 22.76003 | 6230 ft | 275 kts | 223° |
| 2026-05-05 15:40 | 40.52273 | 22.74437 | 7044 ft | 279 kts | 219° |
| 2026-05-05 15:40 | 40.50727 | 22.72880 | 7864 ft | 282 kts | 219° |
| 2026-05-05 15:41 | 40.49334 | 22.71067 | 8629 ft | 284 kts | 236° |
| 2026-05-05 15:41 | 40.48415 | 22.68780 | 9403 ft | 285 kts | 253° |
| 2026-05-05 15:41 | 40.48030 | 22.66228 | 10139 ft | 287 kts | 265° |
| 2026-05-05 15:41 | 40.47784 | 22.63555 | 10485 ft | 306 kts | 265° |
| 2026-05-05 15:42 | 40.47513 | 22.60674 | 10659 ft | 329 kts | 264° |
| 2026-05-05 15:42 | 40.47218 | 22.57600 | 10941 ft | 346 kts | 264° |
| 2026-05-05 15:42 | 40.46908 | 22.54439 | 11502 ft | 352 kts | 264° |
| 2026-05-05 15:42 | 40.46589 | 22.51229 | 12125 ft | 356 kts | 264° |
| 2026-05-05 15:43 | 40.46270 | 22.48023 | 12746 ft | 360 kts | 265° |
| 2026-05-05 15:43 | 40.45944 | 22.44747 | 13359 ft | 364 kts | 265° |
| 2026-05-05 15:43 | 40.45741 | 22.41419 | 13943 ft | 367 kts | 272° |
| 2026-05-05 15:43 | 40.45745 | 22.38047 | 14504 ft | 370 kts | 273° |
| 2026-05-05 15:44 | 40.45747 | 22.34649 | 15086 ft | 373 kts | 272° |
| 2026-05-05 15:44 | 40.45746 | 22.31230 | 15671 ft | 376 kts | 272° |
| 2026-05-05 15:44 | 40.45739 | 22.27785 | 16238 ft | 378 kts | 272° |
| 2026-05-05 15:44 | 40.45731 | 22.24321 | 16808 ft | 381 kts | 272° |
| 2026-05-05 15:45 | 40.45723 | 22.20829 | 17361 ft | 384 kts | 272° |
| 2026-05-05 15:45 | 40.45712 | 22.17306 | 17950 ft | 387 kts | 272° |
| 2026-05-05 15:45 | 40.45699 | 22.13770 | 18515 ft | 389 kts | 272° |
| 2026-05-05 15:45 | 40.45686 | 22.10249 | 19028 ft | 391 kts | 272° |
| 2026-05-05 15:46 | 40.45671 | 22.06662 | 19584 ft | 392 kts | 272° |
| 2026-05-05 15:46 | 40.45656 | 22.03074 | 20154 ft | 394 kts | 272° |
| 2026-05-05 15:46 | 40.45644 | 21.99478 | 20703 ft | 394 kts | 272° |
| 2026-05-05 15:46 | 40.45632 | 21.95872 | 21200 ft | 396 kts | 272° |
| 2026-05-05 15:47 | 40.45614 | 21.92252 | 21677 ft | 398 kts | 272° |
| 2026-05-05 15:47 | 40.45601 | 21.89842 | 21998 ft | 399 kts | 272° |
| 2026-05-05 15:47 | 40.45577 | 21.84945 | 22651 ft | 401 kts | 272° |
| 2026-05-05 15:47 | 40.45555 | 21.81279 | 23105 ft | 403 kts | 272° |
| 2026-05-05 15:48 | 40.45530 | 21.77583 | 23542 ft | 405 kts | 272° |
| 2026-05-05 15:48 | 40.45505 | 21.73871 | 23944 ft | 407 kts | 272° |
| 2026-05-05 15:48 | 40.45477 | 21.70201 | 24333 ft | 408 kts | 272° |
| 2026-05-05 15:48 | 40.45451 | 21.66476 | 24737 ft | 409 kts | 273° |
| 2026-05-05 15:49 | 40.45426 | 21.62741 | 25130 ft | 410 kts | 273° |
| 2026-05-05 15:49 | 40.45398 | 21.58993 | 25516 ft | 410 kts | 273° |
| 2026-05-05 15:49 | 40.45368 | 21.55238 | 25881 ft | 411 kts | 273° |
| 2026-05-05 15:49 | 40.45335 | 21.51478 | 26274 ft | 412 kts | 273° |
| 2026-05-05 15:50 | 40.45301 | 21.47713 | 26667 ft | 413 kts | 273° |
| 2026-05-05 15:50 | 40.45267 | 21.43929 | 27063 ft | 414 kts | 273° |
| 2026-05-05 15:50 | 40.45232 | 21.40143 | 27448 ft | 415 kts | 273° |
| 2026-05-05 15:50 | 40.45196 | 21.36344 | 27844 ft | 416 kts | 273° |
| 2026-05-05 15:51 | 40.45161 | 21.32539 | 28206 ft | 417 kts | 274° |
| 2026-05-05 15:51 | 40.45124 | 21.28741 | 28732 ft | 414 kts | 275° |
| 2026-05-05 15:51 | 40.45338 | 21.25008 | 29270 ft | 408 kts | 281° |
| 2026-05-05 15:51 | 40.45689 | 21.21331 | 29828 ft | 405 kts | 281° |
| 2026-05-05 15:52 | 40.46035 | 21.17675 | 30353 ft | 401 kts | 281° |
| 2026-05-05 15:52 | 40.46375 | 21.14051 | 30849 ft | 398 kts | 281° |
| 2026-05-05 15:52 | 40.46711 | 21.10455 | 31324 ft | 395 kts | 281° |
| 2026-05-05 15:52 | 40.47034 | 21.06930 | 31806 ft | 392 kts | 281° |
| 2026-05-05 15:53 | 40.47357 | 21.03392 | 32338 ft | 388 kts | 281° |
| 2026-05-05 15:53 | 40.47681 | 20.99896 | 32904 ft | 383 kts | 282° |
| 2026-05-05 15:53 | 40.48286 | 20.96541 | 33458 ft | 374 kts | 292° |
| 2026-05-05 15:53 | 40.49339 | 20.93459 | 34042 ft | 367 kts | 301° |
| 2026-05-05 15:54 | 40.50745 | 20.90688 | 34504 ft | 362 kts | 306° |
| 2026-05-05 15:54 | 40.52209 | 20.88000 | 34835 ft | 362 kts | 306° |
| 2026-05-05 15:54 | 40.53674 | 20.85302 | 35113 ft | 363 kts | 306° |
| 2026-05-05 15:54 | 40.55141 | 20.82587 | 35331 ft | 365 kts | 306° |
| 2026-05-05 15:55 | 40.56611 | 20.79862 | 35576 ft | 366 kts | 305° |
| 2026-05-05 15:55 | 40.58081 | 20.77132 | 35861 ft | 366 kts | 305° |
| 2026-05-05 15:55 | 40.59553 | 20.74394 | 36044 ft | 367 kts | 305° |
| 2026-05-05 15:56 | 40.62540 | 20.68833 | 36104 ft | 377 kts | 305° |
| 2026-05-05 15:56 | 40.65584 | 20.63177 | 36103 ft | 379 kts | 305° |
| 2026-05-05 15:57 | 40.68630 | 20.57498 | 36111 ft | 379 kts | 305° |
| 2026-05-05 15:57 | 40.71672 | 20.51814 | 36110 ft | 379 kts | 306° |
| 2026-05-05 15:58 | 40.74693 | 20.46168 | 36103 ft | 379 kts | 305° |
| 2026-05-05 15:58 | 40.77727 | 20.40480 | 36120 ft | 379 kts | 305° |
| 2026-05-05 15:59 | 40.80761 | 20.34785 | 36121 ft | 379 kts | 305° |
| 2026-05-05 15:59 | 40.83791 | 20.29079 | 36122 ft | 379 kts | 305° |
| 2026-05-05 16:00 | 40.86824 | 20.23374 | 36120 ft | 380 kts | 304° |
| 2026-05-05 16:00 | 40.89854 | 20.17657 | 36124 ft | 380 kts | 305° |
| 2026-05-05 16:01 | 40.92879 | 20.11932 | 36115 ft | 380 kts | 304° |
| 2026-05-05 16:01 | 40.95908 | 20.06184 | 36115 ft | 380 kts | 304° |
| 2026-05-05 16:02 | 40.98914 | 20.00469 | 36113 ft | 381 kts | 304° |
| 2026-05-05 16:02 | 41.01944 | 19.94710 | 36115 ft | 381 kts | 304° |
| 2026-05-05 16:03 | 41.04967 | 19.88949 | 36118 ft | 381 kts | 304° |
| 2026-05-05 16:03 | 41.07992 | 19.83177 | 36116 ft | 381 kts | 304° |
| 2026-05-05 16:04 | 41.11010 | 19.77410 | 36103 ft | 381 kts | 304° |
| 2026-05-05 16:04 | 41.14029 | 19.71632 | 36102 ft | 381 kts | 304° |
| 2026-05-05 16:05 | 41.17053 | 19.65846 | 36101 ft | 382 kts | 304° |
| 2026-05-05 16:05 | 41.20069 | 19.60046 | 36109 ft | 382 kts | 303° |
| 2026-05-05 16:06 | 41.23061 | 19.54271 | 36108 ft | 382 kts | 303° |
| 2026-05-05 16:06 | 41.26071 | 19.48446 | 36109 ft | 382 kts | 303° |
| 2026-05-05 16:07 | 41.29078 | 19.42626 | 36104 ft | 382 kts | 303° |
| 2026-05-05 16:07 | 41.32089 | 19.36798 | 36101 ft | 382 kts | 303° |
| 2026-05-05 16:08 | 41.35100 | 19.30955 | 36102 ft | 383 kts | 303° |
| 2026-05-05 16:08 | 41.38084 | 19.25140 | 36109 ft | 383 kts | 303° |
| 2026-05-05 16:09 | 41.41094 | 19.19275 | 36112 ft | 383 kts | 303° |
| 2026-05-05 16:09 | 41.44095 | 19.13412 | 36110 ft | 383 kts | 303° |
| 2026-05-05 16:10 | 41.47308 | 19.07749 | 36093 ft | 385 kts | 308° |
| 2026-05-05 16:10 | 41.50236 | 19.03276 | 36091 ft | 385 kts | 308° |
| 2026-05-05 16:11 | 41.53760 | 18.97872 | 36085 ft | 386 kts | 308° |
| 2026-05-05 16:12 | 41.60804 | 18.87030 | 36096 ft | 386 kts | 308° |
| 2026-05-05 16:13 | 41.69582 | 18.73464 | 36084 ft | 387 kts | 308° |
| 2026-05-05 16:13 | 41.73116 | 18.67995 | 36078 ft | 389 kts | 308° |
| 2026-05-05 16:14 | 41.80180 | 18.57003 | 36076 ft | 389 kts | 308° |
| 2026-05-05 16:15 | 41.87246 | 18.45976 | 36082 ft | 390 kts | 308° |
| 2026-05-05 16:16 | 41.94332 | 18.34890 | 36079 ft | 392 kts | 307° |
| 2026-05-05 16:17 | 41.99653 | 18.26534 | 36061 ft | 395 kts | 307° |
| 2026-05-05 16:18 | 42.05008 | 18.18094 | 36066 ft | 396 kts | 307° |
| 2026-05-05 16:19 | 42.10377 | 18.09622 | 36067 ft | 397 kts | 307° |
| 2026-05-05 16:19 | 42.15741 | 18.01112 | 36069 ft | 397 kts | 307° |
| 2026-05-05 16:20 | 42.22870 | 17.89793 | 36087 ft | 397 kts | 307° |
| 2026-05-05 16:22 | 42.31817 | 17.75505 | 36075 ft | 399 kts | 307° |
| 2026-05-05 16:23 | 42.39007 | 17.63985 | 36055 ft | 402 kts | 307° |
| 2026-05-05 16:23 | 42.44411 | 17.55280 | 36053 ft | 403 kts | 307° |
| 2026-05-05 16:24 | 42.47993 | 17.49507 | 36074 ft | 403 kts | 307° |
| 2026-05-05 16:25 | 42.53395 | 17.40771 | 36067 ft | 403 kts | 307° |
| 2026-05-05 16:25 | 42.58796 | 17.32014 | 36056 ft | 404 kts | 307° |
| 2026-05-05 16:26 | 42.66022 | 17.20267 | 36058 ft | 405 kts | 307° |
| 2026-05-05 16:27 | 42.69630 | 17.14375 | 36061 ft | 406 kts | 307° |
| 2026-05-05 16:27 | 42.73242 | 17.08473 | 36063 ft | 406 kts | 307° |
| 2026-05-05 16:28 | 42.76851 | 17.02551 | 36070 ft | 406 kts | 307° |
| 2026-05-05 16:28 | 42.80459 | 16.96621 | 36063 ft | 407 kts | 307° |
| 2026-05-05 16:29 | 42.84077 | 16.90672 | 36061 ft | 408 kts | 307° |
| 2026-05-05 16:29 | 42.87695 | 16.84709 | 36062 ft | 408 kts | 307° |
| 2026-05-05 16:30 | 42.91314 | 16.78733 | 36062 ft | 409 kts | 306° |
| 2026-05-05 16:30 | 42.94926 | 16.72747 | 36062 ft | 409 kts | 306° |
| 2026-05-05 16:31 | 42.98520 | 16.66785 | 36052 ft | 409 kts | 306° |
| 2026-05-05 16:31 | 43.02140 | 16.60766 | 36055 ft | 410 kts | 306° |
| 2026-05-05 16:32 | 43.05767 | 16.54728 | 36050 ft | 412 kts | 306° |
| 2026-05-05 16:32 | 43.09401 | 16.48663 | 36049 ft | 412 kts | 306° |
| 2026-05-05 16:33 | 43.13033 | 16.42586 | 36058 ft | 412 kts | 306° |
| 2026-05-05 16:33 | 43.16666 | 16.36506 | 36060 ft | 413 kts | 306° |
| 2026-05-05 16:34 | 43.20296 | 16.30408 | 36061 ft | 413 kts | 306° |
| 2026-05-05 16:34 | 43.23927 | 16.24293 | 36070 ft | 414 kts | 306° |
| 2026-05-05 16:35 | 43.27560 | 16.18165 | 36077 ft | 414 kts | 306° |
| 2026-05-05 16:35 | 43.31171 | 16.12061 | 36065 ft | 414 kts | 306° |
| 2026-05-05 16:36 | 43.34809 | 16.05911 | 36068 ft | 415 kts | 306° |
| 2026-05-05 16:36 | 43.38437 | 15.99752 | 36067 ft | 415 kts | 306° |
| 2026-05-05 16:37 | 43.42066 | 15.93576 | 36072 ft | 415 kts | 306° |
| 2026-05-05 16:37 | 43.45697 | 15.87388 | 36062 ft | 415 kts | 306° |
| 2026-05-05 16:38 | 43.49322 | 15.81194 | 36056 ft | 416 kts | 306° |
| 2026-05-05 16:38 | 43.52962 | 15.75002 | 36070 ft | 416 kts | 307° |
| 2026-05-05 16:39 | 43.56832 | 15.69046 | 36065 ft | 418 kts | 310° |
| 2026-05-05 16:39 | 43.60810 | 15.63205 | 36073 ft | 418 kts | 310° |
| 2026-05-05 16:40 | 43.64752 | 15.57310 | 36065 ft | 418 kts | 309° |
| 2026-05-05 16:40 | 43.68624 | 15.51387 | 36063 ft | 418 kts | 309° |
| 2026-05-05 16:41 | 43.72513 | 15.45403 | 36067 ft | 418 kts | 308° |
| 2026-05-05 16:41 | 43.76401 | 15.39415 | 36062 ft | 419 kts | 309° |
| 2026-05-05 16:42 | 43.80303 | 15.33421 | 36060 ft | 419 kts | 309° |
| 2026-05-05 16:42 | 43.84207 | 15.27427 | 36071 ft | 419 kts | 308° |
| 2026-05-05 16:43 | 43.88111 | 15.21413 | 36061 ft | 419 kts | 308° |
| 2026-05-05 16:43 | 43.92004 | 15.15388 | 36059 ft | 419 kts | 308° |
| 2026-05-05 16:44 | 43.95899 | 15.09350 | 36059 ft | 420 kts | 308° |
| 2026-05-05 16:44 | 43.99798 | 15.03305 | 36056 ft | 420 kts | 308° |
| 2026-05-05 16:45 | 44.03661 | 14.97300 | 36047 ft | 419 kts | 308° |
| 2026-05-05 16:45 | 44.07548 | 14.91243 | 36051 ft | 419 kts | 308° |
| 2026-05-05 16:46 | 44.11419 | 14.85194 | 36048 ft | 418 kts | 308° |
| 2026-05-05 16:46 | 44.15279 | 14.79146 | 36040 ft | 417 kts | 308° |
| 2026-05-05 16:47 | 44.19131 | 14.73103 | 36040 ft | 417 kts | 308° |
| 2026-05-05 16:47 | 44.22989 | 14.67043 | 36038 ft | 417 kts | 308° |
| 2026-05-05 16:48 | 44.26829 | 14.60987 | 36034 ft | 417 kts | 308° |
| 2026-05-05 16:48 | 44.30673 | 14.54917 | 36022 ft | 418 kts | 308° |
| 2026-05-05 16:49 | 44.34519 | 14.48821 | 36019 ft | 418 kts | 307° |
| 2026-05-05 16:49 | 44.38371 | 14.42711 | 36019 ft | 419 kts | 308° |
| 2026-05-05 16:50 | 44.42197 | 14.36628 | 36033 ft | 419 kts | 307° |
| 2026-05-05 16:50 | 44.46044 | 14.30500 | 36034 ft | 419 kts | 307° |
| 2026-05-05 16:51 | 44.49882 | 14.24376 | 36038 ft | 419 kts | 307° |
| 2026-05-05 16:51 | 44.53729 | 14.18228 | 36017 ft | 420 kts | 307° |
| 2026-05-05 16:52 | 44.57576 | 14.12047 | 36002 ft | 421 kts | 307° |
| 2026-05-05 16:52 | 44.61430 | 14.05847 | 36021 ft | 422 kts | 307° |
| 2026-05-05 16:53 | 44.65296 | 13.99649 | 36034 ft | 422 kts | 307° |
| 2026-05-05 16:53 | 44.69150 | 13.93430 | 36036 ft | 422 kts | 307° |
| 2026-05-05 16:54 | 44.73000 | 13.87202 | 36036 ft | 422 kts | 307° |
| 2026-05-05 16:54 | 44.76824 | 13.80995 | 36029 ft | 423 kts | 307° |
| 2026-05-05 16:55 | 44.80683 | 13.74720 | 36030 ft | 424 kts | 307° |
| 2026-05-05 16:55 | 44.84543 | 13.68444 | 36029 ft | 424 kts | 307° |
| 2026-05-05 16:56 | 44.88405 | 13.62145 | 36026 ft | 424 kts | 307° |
| 2026-05-05 16:56 | 44.92258 | 13.55834 | 36021 ft | 424 kts | 307° |
| 2026-05-05 16:57 | 44.96106 | 13.49514 | 36005 ft | 424 kts | 307° |
| 2026-05-05 16:57 | 44.99964 | 13.43194 | 36019 ft | 425 kts | 307° |
| 2026-05-05 16:58 | 45.03796 | 13.36886 | 35997 ft | 426 kts | 307° |
| 2026-05-05 16:58 | 45.07648 | 13.30511 | 35997 ft | 427 kts | 306° |
| 2026-05-05 16:59 | 45.11503 | 13.24116 | 35990 ft | 427 kts | 307° |
| 2026-05-05 16:59 | 45.15368 | 13.17719 | 35904 ft | 428 kts | 307° |
| 2026-05-05 17:00 | 45.16673 | 13.15554 | 35735 ft | 427 kts | 306° |
| 2026-05-05 17:00 | 45.18602 | 13.12353 | 35166 ft | 428 kts | 306° |
| 2026-05-05 17:00 | 45.20542 | 13.09128 | 34407 ft | 431 kts | 306° |
| 2026-05-05 17:00 | 45.22499 | 13.05877 | 33563 ft | 436 kts | 306° |
| 2026-05-05 17:01 | 45.24351 | 13.02588 | 32672 ft | 426 kts | 300° |
| 2026-05-05 17:01 | 45.25832 | 12.98953 | 31751 ft | 426 kts | 291° |
| 2026-05-05 17:01 | 45.26881 | 12.95017 | 30885 ft | 426 kts | 282° |
| 2026-05-05 17:01 | 45.27536 | 12.90899 | 29865 ft | 430 kts | 278° |
| 2026-05-05 17:02 | 45.28134 | 12.86724 | 28957 ft | 428 kts | 278° |
| 2026-05-05 17:02 | 45.28721 | 12.82629 | 28475 ft | 420 kts | 278° |
| 2026-05-05 17:02 | 45.29298 | 12.78586 | 27816 ft | 416 kts | 278° |
| 2026-05-05 17:02 | 45.29869 | 12.74582 | 27197 ft | 412 kts | 278° |
| 2026-05-05 17:03 | 45.30434 | 12.70615 | 26572 ft | 408 kts | 278° |
| 2026-05-05 17:03 | 45.30994 | 12.66680 | 25957 ft | 404 kts | 278° |
| 2026-05-05 17:03 | 45.31546 | 12.62781 | 25344 ft | 401 kts | 279° |
| 2026-05-05 17:03 | 45.32090 | 12.58920 | 24742 ft | 397 kts | 279° |
| 2026-05-05 17:04 | 45.32629 | 12.55072 | 24141 ft | 394 kts | 279° |
| 2026-05-05 17:04 | 45.33154 | 12.51307 | 23547 ft | 392 kts | 279° |
| 2026-05-05 17:04 | 45.33682 | 12.47530 | 22895 ft | 388 kts | 279° |
| 2026-05-05 17:04 | 45.34205 | 12.43800 | 22343 ft | 383 kts | 278° |
| 2026-05-05 17:05 | 45.34722 | 12.40110 | 21790 ft | 378 kts | 278° |
| 2026-05-05 17:05 | 45.35234 | 12.36462 | 21271 ft | 373 kts | 278° |
| 2026-05-05 17:05 | 45.35736 | 12.32855 | 20758 ft | 370 kts | 278° |
| 2026-05-05 17:05 | 45.36228 | 12.29287 | 20273 ft | 366 kts | 278° |
| 2026-05-05 17:06 | 45.36712 | 12.25751 | 19785 ft | 362 kts | 278° |
| 2026-05-05 17:06 | 45.37192 | 12.22255 | 19309 ft | 358 kts | 278° |
| 2026-05-05 17:06 | 45.37669 | 12.18798 | 18839 ft | 355 kts | 277° |
| 2026-05-05 17:06 | 45.38139 | 12.15363 | 18363 ft | 352 kts | 277° |
| 2026-05-05 17:07 | 45.38603 | 12.11957 | 17826 ft | 349 kts | 277° |
| 2026-05-05 17:07 | 45.39058 | 12.08633 | 17333 ft | 345 kts | 277° |
| 2026-05-05 17:07 | 45.39513 | 12.05305 | 16841 ft | 341 kts | 277° |
| 2026-05-05 17:07 | 45.39960 | 12.02013 | 16337 ft | 338 kts | 277° |
| 2026-05-05 17:08 | 45.40401 | 11.98738 | 15841 ft | 335 kts | 277° |
| 2026-05-05 17:08 | 45.40836 | 11.95497 | 15332 ft | 333 kts | 277° |
| 2026-05-05 17:08 | 45.41262 | 11.92270 | 14828 ft | 330 kts | 275° |
| 2026-05-05 17:08 | 45.41438 | 11.89037 | 14322 ft | 327 kts | 270° |
| 2026-05-05 17:09 | 45.41541 | 11.85806 | 13810 ft | 326 kts | 270° |
| 2026-05-05 17:09 | 45.41644 | 11.82590 | 13265 ft | 324 kts | 270° |
| 2026-05-05 17:09 | 45.41749 | 11.79403 | 12764 ft | 321 kts | 270° |
| 2026-05-05 17:09 | 45.41854 | 11.76238 | 12262 ft | 319 kts | 270° |
| 2026-05-05 17:10 | 45.41960 | 11.73084 | 11765 ft | 317 kts | 270° |
| 2026-05-05 17:10 | 45.42062 | 11.69998 | 11278 ft | 315 kts | 270° |
| 2026-05-05 17:10 | 45.42164 | 11.66882 | 10786 ft | 314 kts | 270° |
| 2026-05-05 17:10 | 45.42265 | 11.63857 | 10605 ft | 295 kts | 270° |
| 2026-05-05 17:11 | 45.42361 | 11.61043 | 10386 ft | 277 kts | 270° |
| 2026-05-05 17:11 | 45.42448 | 11.58325 | 10070 ft | 273 kts | 270° |
| 2026-05-05 17:11 | 45.42529 | 11.55644 | 9891 ft | 268 kts | 270° |
| 2026-05-05 17:11 | 45.42609 | 11.52994 | 9747 ft | 268 kts | 270° |
| 2026-05-05 17:12 | 45.42723 | 11.50344 | 9624 ft | 269 kts | 276° |
| 2026-05-05 17:12 | 45.43440 | 11.47881 | 9495 ft | 276 kts | 303° |
| 2026-05-05 17:12 | 45.44949 | 11.46155 | 9351 ft | 287 kts | 333° |
| 2026-05-05 17:12 | 45.46923 | 11.45703 | 9228 ft | 293 kts | 4° |
| 2026-05-05 17:13 | 45.48796 | 11.46737 | 9091 ft | 289 kts | 36° |
| 2026-05-05 17:13 | 45.50015 | 11.48874 | 8959 ft | 275 kts | 68° |
| 2026-05-05 17:13 | 45.50349 | 11.51432 | 8832 ft | 262 kts | 99° |
| 2026-05-05 17:13 | 45.49898 | 11.53899 | 8708 ft | 249 kts | 112° |
| 2026-05-05 17:14 | 45.49362 | 11.56166 | 8576 ft | 240 kts | 113° |
| 2026-05-05 17:14 | 45.48940 | 11.58442 | 8444 ft | 237 kts | 97° |
| 2026-05-05 17:14 | 45.49103 | 11.60771 | 8319 ft | 238 kts | 73° |
| 2026-05-05 17:14 | 45.49677 | 11.62982 | 8148 ft | 238 kts | 70° |
| 2026-05-05 17:15 | 45.50268 | 11.65188 | 7843 ft | 239 kts | 70° |
| 2026-05-05 17:15 | 45.50864 | 11.67414 | 7531 ft | 242 kts | 70° |
| 2026-05-05 17:15 | 45.51464 | 11.69665 | 7204 ft | 244 kts | 70° |
| 2026-05-05 17:15 | 45.52069 | 11.71944 | 6869 ft | 247 kts | 70° |
| 2026-05-05 17:16 | 45.52681 | 11.74248 | 6529 ft | 250 kts | 69° |
| 2026-05-05 17:16 | 45.53298 | 11.76573 | 6170 ft | 252 kts | 69° |
| 2026-05-05 17:16 | 45.53918 | 11.78898 | 5808 ft | 248 kts | 69° |
| 2026-05-05 17:16 | 45.54534 | 11.81155 | 5474 ft | 241 kts | 69° |
| 2026-05-05 17:17 | 45.55141 | 11.83347 | 5179 ft | 234 kts | 69° |
| 2026-05-05 17:17 | 45.55732 | 11.85476 | 4873 ft | 227 kts | 69° |
| 2026-05-05 17:17 | 45.56306 | 11.87542 | 4563 ft | 219 kts | 69° |
| 2026-05-05 17:17 | 45.56849 | 11.89505 | 4301 ft | 206 kts | 69° |
| 2026-05-05 17:18 | 45.57353 | 11.91362 | 4003 ft | 195 kts | 69° |
| 2026-05-05 17:18 | 45.57827 | 11.93124 | 3743 ft | 186 kts | 69° |
| 2026-05-05 17:18 | 45.58276 | 11.94795 | 3509 ft | 177 kts | 70° |
| 2026-05-05 17:18 | 45.58712 | 11.96419 | 3267 ft | 174 kts | 69° |
| 2026-05-05 17:19 | 45.59142 | 11.98022 | 3049 ft | 171 kts | 69° |
| 2026-05-05 17:19 | 45.59557 | 11.99569 | 2821 ft | 166 kts | 69° |
| 2026-05-05 17:19 | 45.59962 | 12.01084 | 2594 ft | 160 kts | 69° |
| 2026-05-05 17:19 | 45.60351 | 12.02537 | 2382 ft | 155 kts | 69° |
| 2026-05-05 17:20 | 45.60727 | 12.03942 | 2189 ft | 146 kts | 69° |
| 2026-05-05 17:20 | 45.61089 | 12.05295 | 1993 ft | 145 kts | 69° |
| 2026-05-05 17:20 | 45.61444 | 12.06625 | 1792 ft | 142 kts | 69° |
| 2026-05-05 17:20 | 45.61792 | 12.07925 | 1605 ft | 138 kts | 69° |
| 2026-05-05 17:21 | 45.62133 | 12.09206 | 1406 ft | 139 kts | 69° |
| 2026-05-05 17:21 | 45.62476 | 12.10491 | 1215 ft | 138 kts | 68° |
| 2026-05-05 17:21 | 45.62819 | 12.11776 | 1021 ft | 138 kts | 68° |
| 2026-05-05 17:22 | 45.63508 | 12.14316 | 633 ft | 136 kts | 68° |
| 2026-05-05 17:22 | 45.63847 | 12.15585 | 425 ft | 137 kts | 69° |
| 2026-05-05 17:22 | 45.64170 | 12.16857 | 256 ft | 136 kts | 69° |
| 2026-05-05 17:22 | 45.64507 | 12.18117 | 113 ft | 135 kts | 68° |
| 2026-05-05 17:23 | 45.64830 | 12.19316 | 60 ft | 114 kts | 69° |
| 2026-05-05 17:23 | 45.65026 | 12.20080 | 60 ft | 32 kts | 70° |
| 2026-05-05 17:23 | 45.65100 | 12.20200 | 60 ft | 13 kts | 24° |
| 2026-05-05 17:23 | 45.65138 | 12.20224 | 60 ft | 3 kts | 24° |
| 2026-05-05 17:24 | 45.65157 | 12.20236 | 60 ft | 3 kts | 24° |
| 2026-05-05 17:24 | 45.65174 | 12.20248 | 63 ft | 3 kts | 24° |
| 2026-05-05 17:24 | 45.65192 | 12.20259 | 54 ft | 3 kts | 24° |
| 2026-05-05 17:24 | 45.65238 | 12.20289 | 58 ft | 13 kts | 25° |
| 2026-05-05 17:25 | 45.65300 | 12.20375 | 61 ft | 12 kts | 64° |
| 2026-05-05 17:25 | 45.65321 | 12.20428 | 60 ft | 7 kts | 47° |
| 2026-05-05 17:25 | 45.65369 | 12.20437 | 62 ft | 0 kts | 347° |
| 2026-05-05 17:25 | 45.65382 | 12.20430 | 57 ft | 2 kts | 341° |
| 2026-05-05 17:26 | 45.65386 | 12.20428 | 59 ft | 0 kts | 341° |